sensor_id;sensor_type;location;lat;lon;timestamp;P1;durP1;ratioP1;P2;durP2;ratioP2
44508;SDS011;30214;52.246;14.408;2024-01-25T00:00:20;16.15;;;3.05;;
44508;SDS011;30214;52.246;14.408;2024-01-25T00:02:48;20.38;;;3.50;;
44508;SDS011;30214;52.246;14.408;2024-01-25T00:05:16;19.85;;;3.58;;
44508;SDS011;30214;52.246;14.408;2024-01-25T00:07:45;21.52;;;3.63;;
44508;SDS011;30214;52.246;14.408;2024-01-25T00:10:14;20.55;;;3.90;;
44508;SDS011;30214;52.246;14.408;2024-01-25T00:12:45;17.60;;;3.28;;
44508;SDS011;30214;52.246;14.408;2024-01-25T00:15:13;16.35;;;3.13;;
44508;SDS011;30214;52.246;14.408;2024-01-25T00:17:41;24.60;;;3.60;;
44508;SDS011;30214;52.246;14.408;2024-01-25T00:20:09;24.33;;;3.55;;
44508;SDS011;30214;52.246;14.408;2024-01-25T00:22:39;18.02;;;3.72;;
44508;SDS011;30214;52.246;14.408;2024-01-25T00:25:07;17.88;;;3.03;;
44508;SDS011;30214;52.246;14.408;2024-01-25T00:27:35;17.15;;;3.33;;
44508;SDS011;30214;52.246;14.408;2024-01-25T00:30:05;16.80;;;2.92;;
44508;SDS011;30214;52.246;14.408;2024-01-25T00:32:34;20.77;;;3.67;;
44508;SDS011;30214;52.246;14.408;2024-01-25T00:35:03;22.08;;;3.45;;
44508;SDS011;30214;52.246;14.408;2024-01-25T00:37:35;19.60;;;3.58;;
44508;SDS011;30214;52.246;14.408;2024-01-25T00:40:07;19.50;;;3.67;;
44508;SDS011;30214;52.246;14.408;2024-01-25T00:42:37;19.75;;;3.15;;
44508;SDS011;30214;52.246;14.408;2024-01-25T00:45:11;16.45;;;3.22;;
44508;SDS011;30214;52.246;14.408;2024-01-25T00:47:40;22.58;;;3.17;;
44508;SDS011;30214;52.246;14.408;2024-01-25T00:50:08;19.73;;;4.10;;
44508;SDS011;30214;52.246;14.408;2024-01-25T00:52:38;17.63;;;3.20;;
44508;SDS011;30214;52.246;14.408;2024-01-25T00:55:09;21.60;;;2.88;;
44508;SDS011;30214;52.246;14.408;2024-01-25T00:57:40;21.80;;;3.55;;
44508;SDS011;30214;52.246;14.408;2024-01-25T01:00:09;22.73;;;5.15;;
44508;SDS011;30214;52.246;14.408;2024-01-25T01:02:43;17.13;;;2.92;;
44508;SDS011;30214;52.246;14.408;2024-01-25T01:05:11;17.23;;;3.13;;
44508;SDS011;30214;52.246;14.408;2024-01-25T01:07:41;17.63;;;3.72;;
44508;SDS011;30214;52.246;14.408;2024-01-25T01:10:10;19.98;;;3.75;;
44508;SDS011;30214;52.246;14.408;2024-01-25T01:12:39;16.85;;;3.10;;
44508;SDS011;30214;52.246;14.408;2024-01-25T01:15:07;22.38;;;3.38;;
44508;SDS011;30214;52.246;14.408;2024-01-25T01:17:38;18.83;;;3.60;;
44508;SDS011;30214;52.246;14.408;2024-01-25T01:20:06;19.77;;;3.17;;
44508;SDS011;30214;52.246;14.408;2024-01-25T01:22:35;22.83;;;3.30;;
44508;SDS011;30214;52.246;14.408;2024-01-25T01:25:03;22.00;;;3.40;;
44508;SDS011;30214;52.246;14.408;2024-01-25T01:27:32;19.05;;;3.40;;
44508;SDS011;30214;52.246;14.408;2024-01-25T01:29:59;15.77;;;3.30;;
44508;SDS011;30214;52.246;14.408;2024-01-25T01:32:28;16.13;;;3.30;;
44508;SDS011;30214;52.246;14.408;2024-01-25T01:34:56;16.02;;;3.53;;
44508;SDS011;30214;52.246;14.408;2024-01-25T01:37:24;18.70;;;3.40;;
44508;SDS011;30214;52.246;14.408;2024-01-25T01:39:51;16.40;;;3.00;;
44508;SDS011;30214;52.246;14.408;2024-01-25T01:42:22;21.85;;;3.58;;
44508;SDS011;30214;52.246;14.408;2024-01-25T01:44:50;18.67;;;4.13;;
44508;SDS011;30214;52.246;14.408;2024-01-25T01:47:19;14.82;;;2.80;;
44508;SDS011;30214;52.246;14.408;2024-01-25T01:49:49;16.58;;;2.85;;
44508;SDS011;30214;52.246;14.408;2024-01-25T01:52:16;20.05;;;3.08;;
44508;SDS011;30214;52.246;14.408;2024-01-25T01:54:45;17.13;;;2.85;;
44508;SDS011;30214;52.246;14.408;2024-01-25T01:57:13;23.98;;;5.20;;
44508;SDS011;30214;52.246;14.408;2024-01-25T01:59:42;12.15;;;2.67;;
44508;SDS011;30214;52.246;14.408;2024-01-25T02:02:11;16.50;;;3.13;;
44508;SDS011;30214;52.246;14.408;2024-01-25T02:04:39;18.17;;;3.20;;
44508;SDS011;30214;52.246;14.408;2024-01-25T02:07:09;25.17;;;3.80;;
44508;SDS011;30214;52.246;14.408;2024-01-25T02:09:38;16.77;;;3.03;;
44508;SDS011;30214;52.246;14.408;2024-01-25T02:12:06;19.92;;;2.72;;
44508;SDS011;30214;52.246;14.408;2024-01-25T02:14:34;14.15;;;2.97;;
44508;SDS011;30214;52.246;14.408;2024-01-25T02:17:03;19.33;;;3.28;;
44508;SDS011;30214;52.246;14.408;2024-01-25T02:19:30;16.17;;;3.45;;
44508;SDS011;30214;52.246;14.408;2024-01-25T02:21:58;17.80;;;3.00;;
44508;SDS011;30214;52.246;14.408;2024-01-25T02:24:30;16.60;;;2.83;;
44508;SDS011;30214;52.246;14.408;2024-01-25T02:27:03;17.73;;;2.58;;
44508;SDS011;30214;52.246;14.408;2024-01-25T02:29:33;15.80;;;2.80;;
44508;SDS011;30214;52.246;14.408;2024-01-25T02:32:04;16.80;;;2.75;;
44508;SDS011;30214;52.246;14.408;2024-01-25T02:34:34;19.95;;;2.90;;
44508;SDS011;30214;52.246;14.408;2024-01-25T02:37:07;16.42;;;2.70;;
44508;SDS011;30214;52.246;14.408;2024-01-25T02:39:41;19.42;;;4.57;;
44508;SDS011;30214;52.246;14.408;2024-01-25T02:42:11;14.95;;;3.55;;
44508;SDS011;30214;52.246;14.408;2024-01-25T02:44:39;15.35;;;3.03;;
44508;SDS011;30214;52.246;14.408;2024-01-25T02:47:06;19.40;;;3.28;;
44508;SDS011;30214;52.246;14.408;2024-01-25T02:49:33;19.17;;;3.22;;
44508;SDS011;30214;52.246;14.408;2024-01-25T02:52:00;15.10;;;3.33;;
44508;SDS011;30214;52.246;14.408;2024-01-25T02:54:28;16.88;;;2.38;;
44508;SDS011;30214;52.246;14.408;2024-01-25T02:56:57;17.75;;;2.90;;
44508;SDS011;30214;52.246;14.408;2024-01-25T02:59:24;21.02;;;3.35;;
44508;SDS011;30214;52.246;14.408;2024-01-25T03:01:51;16.83;;;3.83;;
44508;SDS011;30214;52.246;14.408;2024-01-25T03:04:20;16.80;;;3.08;;
44508;SDS011;30214;52.246;14.408;2024-01-25T03:06:47;20.98;;;3.30;;
44508;SDS011;30214;52.246;14.408;2024-01-25T03:09:15;23.30;;;4.45;;
44508;SDS011;30214;52.246;14.408;2024-01-25T03:11:42;18.65;;;2.92;;
44508;SDS011;30214;52.246;14.408;2024-01-25T03:14:10;18.00;;;3.05;;
44508;SDS011;30214;52.246;14.408;2024-01-25T03:16:37;17.85;;;3.50;;
44508;SDS011;30214;52.246;14.408;2024-01-25T03:19:04;19.30;;;2.78;;
44508;SDS011;30214;52.246;14.408;2024-01-25T03:21:32;17.55;;;3.70;;
44508;SDS011;30214;52.246;14.408;2024-01-25T03:23:59;19.77;;;3.38;;
44508;SDS011;30214;52.246;14.408;2024-01-25T03:26:26;17.85;;;3.85;;
44508;SDS011;30214;52.246;14.408;2024-01-25T03:28:53;15.50;;;3.35;;
44508;SDS011;30214;52.246;14.408;2024-01-25T03:31:22;20.67;;;2.90;;
44508;SDS011;30214;52.246;14.408;2024-01-25T03:33:49;28.75;;;3.88;;
44508;SDS011;30214;52.246;14.408;2024-01-25T03:36:16;18.35;;;3.00;;
44508;SDS011;30214;52.246;14.408;2024-01-25T03:38:43;21.92;;;4.13;;
44508;SDS011;30214;52.246;14.408;2024-01-25T03:41:11;15.55;;;3.33;;
44508;SDS011;30214;52.246;14.408;2024-01-25T03:43:38;17.70;;;3.20;;
44508;SDS011;30214;52.246;14.408;2024-01-25T03:46:05;18.52;;;3.33;;
44508;SDS011;30214;52.246;14.408;2024-01-25T03:48:32;17.25;;;3.28;;
44508;SDS011;30214;52.246;14.408;2024-01-25T03:51:00;17.48;;;3.25;;
44508;SDS011;30214;52.246;14.408;2024-01-25T03:53:27;22.73;;;3.25;;
44508;SDS011;30214;52.246;14.408;2024-01-25T03:55:54;18.73;;;3.15;;
44508;SDS011;30214;52.246;14.408;2024-01-25T03:58:21;20.58;;;2.88;;
44508;SDS011;30214;52.246;14.408;2024-01-25T04:00:48;23.30;;;3.70;;
44508;SDS011;30214;52.246;14.408;2024-01-25T04:03:15;15.35;;;2.88;;
44508;SDS011;30214;52.246;14.408;2024-01-25T04:05:43;18.30;;;3.95;;
44508;SDS011;30214;52.246;14.408;2024-01-25T04:08:10;16.52;;;2.88;;
44508;SDS011;30214;52.246;14.408;2024-01-25T04:10:37;18.02;;;2.80;;
44508;SDS011;30214;52.246;14.408;2024-01-25T04:13:04;18.85;;;2.92;;
44508;SDS011;30214;52.246;14.408;2024-01-25T04:15:34;15.35;;;2.85;;
44508;SDS011;30214;52.246;14.408;2024-01-25T04:18:01;21.33;;;3.10;;
44508;SDS011;30214;52.246;14.408;2024-01-25T04:20:29;22.92;;;3.28;;
44508;SDS011;30214;52.246;14.408;2024-01-25T04:22:58;19.95;;;3.28;;
44508;SDS011;30214;52.246;14.408;2024-01-25T04:25:25;20.05;;;3.05;;
44508;SDS011;30214;52.246;14.408;2024-01-25T04:27:52;20.23;;;3.65;;
44508;SDS011;30214;52.246;14.408;2024-01-25T04:30:19;19.08;;;3.47;;
44508;SDS011;30214;52.246;14.408;2024-01-25T04:32:46;17.42;;;3.25;;
44508;SDS011;30214;52.246;14.408;2024-01-25T04:35:14;14.52;;;2.65;;
44508;SDS011;30214;52.246;14.408;2024-01-25T04:37:41;18.98;;;3.10;;
44508;SDS011;30214;52.246;14.408;2024-01-25T04:40:10;21.45;;;3.08;;
44508;SDS011;30214;52.246;14.408;2024-01-25T04:42:40;21.27;;;3.00;;
44508;SDS011;30214;52.246;14.408;2024-01-25T04:45:07;18.70;;;2.88;;
44508;SDS011;30214;52.246;14.408;2024-01-25T04:47:36;20.98;;;3.35;;
44508;SDS011;30214;52.246;14.408;2024-01-25T04:50:04;20.98;;;3.72;;
44508;SDS011;30214;52.246;14.408;2024-01-25T04:52:32;17.52;;;2.78;;
44508;SDS011;30214;52.246;14.408;2024-01-25T04:54:59;16.98;;;2.83;;
44508;SDS011;30214;52.246;14.408;2024-01-25T04:57:28;24.30;;;4.10;;
44508;SDS011;30214;52.246;14.408;2024-01-25T04:59:55;19.60;;;3.47;;
44508;SDS011;30214;52.246;14.408;2024-01-25T05:02:22;16.35;;;3.40;;
44508;SDS011;30214;52.246;14.408;2024-01-25T05:04:49;25.50;;;9.55;;
44508;SDS011;30214;52.246;14.408;2024-01-25T05:07:16;23.23;;;6.25;;
44508;SDS011;30214;52.246;14.408;2024-01-25T05:09:43;26.55;;;3.40;;
44508;SDS011;30214;52.246;14.408;2024-01-25T05:12:11;21.88;;;3.45;;
44508;SDS011;30214;52.246;14.408;2024-01-25T05:14:39;22.10;;;3.75;;
44508;SDS011;30214;52.246;14.408;2024-01-25T05:17:24;23.90;;;3.17;;
44508;SDS011;30214;52.246;14.408;2024-01-25T05:19:51;18.52;;;3.35;;
44508;SDS011;30214;52.246;14.408;2024-01-25T05:22:18;17.27;;;2.83;;
44508;SDS011;30214;52.246;14.408;2024-01-25T05:24:47;19.13;;;3.72;;
44508;SDS011;30214;52.246;14.408;2024-01-25T05:27:14;20.88;;;3.45;;
44508;SDS011;30214;52.246;14.408;2024-01-25T05:29:42;21.58;;;3.47;;
44508;SDS011;30214;52.246;14.408;2024-01-25T05:32:09;21.85;;;3.47;;
44508;SDS011;30214;52.246;14.408;2024-01-25T05:34:36;24.00;;;4.05;;
44508;SDS011;30214;52.246;14.408;2024-01-25T05:37:04;20.05;;;3.47;;
44508;SDS011;30214;52.246;14.408;2024-01-25T05:39:31;20.58;;;3.30;;
44508;SDS011;30214;52.246;14.408;2024-01-25T05:41:59;13.05;;;2.60;;
44508;SDS011;30214;52.246;14.408;2024-01-25T05:44:26;19.23;;;3.08;;
44508;SDS011;30214;52.246;14.408;2024-01-25T05:46:55;22.85;;;3.53;;
44508;SDS011;30214;52.246;14.408;2024-01-25T05:49:24;21.83;;;3.72;;
44508;SDS011;30214;52.246;14.408;2024-01-25T05:51:52;21.08;;;3.25;;
44508;SDS011;30214;52.246;14.408;2024-01-25T05:54:20;20.17;;;3.38;;
44508;SDS011;30214;52.246;14.408;2024-01-25T05:56:47;23.70;;;4.82;;
44508;SDS011;30214;52.246;14.408;2024-01-25T05:59:14;28.77;;;9.25;;
44508;SDS011;30214;52.246;14.408;2024-01-25T06:01:42;24.83;;;8.27;;
44508;SDS011;30214;52.246;14.408;2024-01-25T06:04:10;34.58;;;14.80;;
44508;SDS011;30214;52.246;14.408;2024-01-25T06:06:37;25.20;;;6.88;;
44508;SDS011;30214;52.246;14.408;2024-01-25T06:09:06;34.85;;;11.98;;
44508;SDS011;30214;52.246;14.408;2024-01-25T06:11:33;35.00;;;12.98;;
44508;SDS011;30214;52.246;14.408;2024-01-25T06:14:02;28.95;;;11.68;;
44508;SDS011;30214;52.246;14.408;2024-01-25T06:16:31;34.50;;;12.73;;
44508;SDS011;30214;52.246;14.408;2024-01-25T06:18:58;27.33;;;10.85;;
44508;SDS011;30214;52.246;14.408;2024-01-25T06:21:28;20.67;;;9.32;;
44508;SDS011;30214;52.246;14.408;2024-01-25T06:23:55;19.38;;;5.90;;
44508;SDS011;30214;52.246;14.408;2024-01-25T06:26:22;27.58;;;8.45;;
44508;SDS011;30214;52.246;14.408;2024-01-25T06:28:49;29.83;;;10.90;;
44508;SDS011;30214;52.246;14.408;2024-01-25T06:31:16;29.85;;;12.65;;
44508;SDS011;30214;52.246;14.408;2024-01-25T06:33:43;22.77;;;5.60;;
44508;SDS011;30214;52.246;14.408;2024-01-25T06:36:12;27.98;;;7.78;;
44508;SDS011;30214;52.246;14.408;2024-01-25T06:38:41;19.05;;;5.40;;
44508;SDS011;30214;52.246;14.408;2024-01-25T06:41:11;27.75;;;6.93;;
44508;SDS011;30214;52.246;14.408;2024-01-25T06:43:39;22.38;;;6.55;;
44508;SDS011;30214;52.246;14.408;2024-01-25T06:46:07;24.15;;;4.10;;
44508;SDS011;30214;52.246;14.408;2024-01-25T06:48:34;24.52;;;5.00;;
44508;SDS011;30214;52.246;14.408;2024-01-25T06:51:01;23.20;;;4.18;;
44508;SDS011;30214;52.246;14.408;2024-01-25T06:53:29;19.63;;;4.07;;
44508;SDS011;30214;52.246;14.408;2024-01-25T06:55:57;20.52;;;4.10;;
44508;SDS011;30214;52.246;14.408;2024-01-25T06:58:25;16.67;;;4.28;;
44508;SDS011;30214;52.246;14.408;2024-01-25T07:00:52;17.50;;;2.92;;
44508;SDS011;30214;52.246;14.408;2024-01-25T07:03:19;20.60;;;4.75;;
44508;SDS011;30214;52.246;14.408;2024-01-25T07:05:46;18.27;;;3.28;;
44508;SDS011;30214;52.246;14.408;2024-01-25T07:08:13;14.55;;;3.08;;
44508;SDS011;30214;52.246;14.408;2024-01-25T07:10:41;18.77;;;3.08;;
44508;SDS011;30214;52.246;14.408;2024-01-25T07:13:09;21.13;;;3.83;;
44508;SDS011;30214;52.246;14.408;2024-01-25T07:15:36;15.82;;;3.00;;
44508;SDS011;30214;52.246;14.408;2024-01-25T07:18:06;17.50;;;2.90;;
44508;SDS011;30214;52.246;14.408;2024-01-25T07:20:33;17.85;;;3.05;;
44508;SDS011;30214;52.246;14.408;2024-01-25T07:23:00;22.67;;;3.65;;
44508;SDS011;30214;52.246;14.408;2024-01-25T07:25:30;19.67;;;2.85;;
44508;SDS011;30214;52.246;14.408;2024-01-25T07:27:57;15.90;;;3.17;;
44508;SDS011;30214;52.246;14.408;2024-01-25T07:30:26;15.95;;;2.95;;
44508;SDS011;30214;52.246;14.408;2024-01-25T07:32:53;26.45;;;3.90;;
44508;SDS011;30214;52.246;14.408;2024-01-25T07:35:21;22.10;;;5.00;;
44508;SDS011;30214;52.246;14.408;2024-01-25T07:37:48;18.33;;;4.20;;
44508;SDS011;30214;52.246;14.408;2024-01-25T07:40:16;15.57;;;4.10;;
44508;SDS011;30214;52.246;14.408;2024-01-25T07:42:43;20.85;;;4.95;;
44508;SDS011;30214;52.246;14.408;2024-01-25T07:45:10;23.17;;;3.72;;
44508;SDS011;30214;52.246;14.408;2024-01-25T07:47:41;16.83;;;4.57;;
44508;SDS011;30214;52.246;14.408;2024-01-25T07:50:09;18.40;;;6.72;;
44508;SDS011;30214;52.246;14.408;2024-01-25T07:52:37;22.88;;;5.68;;
44508;SDS011;30214;52.246;14.408;2024-01-25T07:55:04;18.60;;;3.30;;
44508;SDS011;30214;52.246;14.408;2024-01-25T07:57:32;15.02;;;3.35;;
44508;SDS011;30214;52.246;14.408;2024-01-25T07:59:59;22.35;;;3.90;;
44508;SDS011;30214;52.246;14.408;2024-01-25T08:02:26;23.40;;;3.17;;
44508;SDS011;30214;52.246;14.408;2024-01-25T08:04:55;22.48;;;3.22;;
44508;SDS011;30214;52.246;14.408;2024-01-25T08:07:23;18.20;;;3.53;;
44508;SDS011;30214;52.246;14.408;2024-01-25T08:09:50;17.45;;;4.00;;
44508;SDS011;30214;52.246;14.408;2024-01-25T08:12:18;21.02;;;4.03;;
44508;SDS011;30214;52.246;14.408;2024-01-25T08:14:45;16.92;;;3.85;;
44508;SDS011;30214;52.246;14.408;2024-01-25T08:17:12;17.90;;;3.33;;
44508;SDS011;30214;52.246;14.408;2024-01-25T08:19:39;18.10;;;3.20;;
44508;SDS011;30214;52.246;14.408;2024-01-25T08:22:11;19.65;;;3.42;;
44508;SDS011;30214;52.246;14.408;2024-01-25T08:24:38;16.60;;;3.38;;
44508;SDS011;30214;52.246;14.408;2024-01-25T08:27:06;17.48;;;3.17;;
44508;SDS011;30214;52.246;14.408;2024-01-25T08:29:33;17.25;;;3.25;;
44508;SDS011;30214;52.246;14.408;2024-01-25T08:32:00;16.63;;;3.17;;
44508;SDS011;30214;52.246;14.408;2024-01-25T08:34:28;12.23;;;2.55;;
44508;SDS011;30214;52.246;14.408;2024-01-25T08:36:55;16.25;;;3.85;;
44508;SDS011;30214;52.246;14.408;2024-01-25T08:39:24;19.70;;;3.75;;
44508;SDS011;30214;52.246;14.408;2024-01-25T08:41:51;19.75;;;3.85;;
44508;SDS011;30214;52.246;14.408;2024-01-25T08:44:18;17.13;;;3.25;;
44508;SDS011;30214;52.246;14.408;2024-01-25T08:46:45;17.23;;;3.20;;
44508;SDS011;30214;52.246;14.408;2024-01-25T08:49:13;12.88;;;3.22;;
44508;SDS011;30214;52.246;14.408;2024-01-25T08:51:40;16.13;;;3.00;;
44508;SDS011;30214;52.246;14.408;2024-01-25T08:54:07;19.48;;;4.65;;
44508;SDS011;30214;52.246;14.408;2024-01-25T08:56:35;18.58;;;3.67;;
44508;SDS011;30214;52.246;14.408;2024-01-25T08:59:02;17.77;;;2.85;;
44508;SDS011;30214;52.246;14.408;2024-01-25T09:01:30;22.90;;;3.35;;
44508;SDS011;30214;52.246;14.408;2024-01-25T09:03:57;17.17;;;2.88;;
44508;SDS011;30214;52.246;14.408;2024-01-25T09:06:27;22.35;;;3.42;;
44508;SDS011;30214;52.246;14.408;2024-01-25T09:08:55;22.88;;;3.53;;
44508;SDS011;30214;52.246;14.408;2024-01-25T09:11:22;14.80;;;2.75;;
44508;SDS011;30214;52.246;14.408;2024-01-25T09:13:51;16.85;;;2.67;;
44508;SDS011;30214;52.246;14.408;2024-01-25T09:16:18;19.85;;;4.82;;
44508;SDS011;30214;52.246;14.408;2024-01-25T09:18:45;29.35;;;9.65;;
44508;SDS011;30214;52.246;14.408;2024-01-25T09:21:13;20.75;;;4.25;;
44508;SDS011;30214;52.246;14.408;2024-01-25T09:23:40;19.70;;;3.78;;
44508;SDS011;30214;52.246;14.408;2024-01-25T09:26:07;18.65;;;3.78;;
44508;SDS011;30214;52.246;14.408;2024-01-25T09:28:34;22.35;;;4.03;;
44508;SDS011;30214;52.246;14.408;2024-01-25T09:31:04;21.63;;;3.05;;
44508;SDS011;30214;52.246;14.408;2024-01-25T09:33:31;17.10;;;3.28;;
44508;SDS011;30214;52.246;14.408;2024-01-25T09:36:00;24.67;;;3.75;;
44508;SDS011;30214;52.246;14.408;2024-01-25T09:38:28;23.45;;;3.50;;
44508;SDS011;30214;52.246;14.408;2024-01-25T09:40:55;15.32;;;3.17;;
44508;SDS011;30214;52.246;14.408;2024-01-25T09:43:23;19.75;;;4.00;;
44508;SDS011;30214;52.246;14.408;2024-01-25T09:45:52;13.23;;;2.50;;
44508;SDS011;30214;52.246;14.408;2024-01-25T09:48:21;15.48;;;3.80;;
44508;SDS011;30214;52.246;14.408;2024-01-25T09:50:49;15.73;;;2.95;;
44508;SDS011;30214;52.246;14.408;2024-01-25T09:53:17;19.25;;;2.78;;
44508;SDS011;30214;52.246;14.408;2024-01-25T09:55:48;21.17;;;3.35;;
44508;SDS011;30214;52.246;14.408;2024-01-25T09:58:34;18.08;;;3.05;;
44508;SDS011;30214;52.246;14.408;2024-01-25T10:01:05;18.52;;;3.58;;
44508;SDS011;30214;52.246;14.408;2024-01-25T10:03:37;17.63;;;3.25;;
44508;SDS011;30214;52.246;14.408;2024-01-25T10:06:06;17.10;;;2.83;;
44508;SDS011;30214;52.246;14.408;2024-01-25T10:08:33;16.20;;;2.88;;
44508;SDS011;30214;52.246;14.408;2024-01-25T10:11:01;15.65;;;3.30;;
44508;SDS011;30214;52.246;14.408;2024-01-25T10:13:28;20.75;;;3.10;;
44508;SDS011;30214;52.246;14.408;2024-01-25T10:15:56;15.23;;;3.17;;
44508;SDS011;30214;52.246;14.408;2024-01-25T10:18:24;20.33;;;3.33;;
44508;SDS011;30214;52.246;14.408;2024-01-25T10:20:54;15.77;;;2.38;;
44508;SDS011;30214;52.246;14.408;2024-01-25T10:23:30;17.77;;;3.50;;
44508;SDS011;30214;52.246;14.408;2024-01-25T10:25:57;22.77;;;3.38;;
44508;SDS011;30214;52.246;14.408;2024-01-25T10:28:25;22.00;;;3.75;;
44508;SDS011;30214;52.246;14.408;2024-01-25T10:30:55;15.77;;;3.25;;
44508;SDS011;30214;52.246;14.408;2024-01-25T10:33:23;18.02;;;4.25;;
44508;SDS011;30214;52.246;14.408;2024-01-25T10:35:54;18.27;;;3.03;;
44508;SDS011;30214;52.246;14.408;2024-01-25T10:38:26;21.05;;;3.40;;
44508;SDS011;30214;52.246;14.408;2024-01-25T10:40:58;17.13;;;2.90;;
44508;SDS011;30214;52.246;14.408;2024-01-25T10:43:27;14.30;;;3.45;;
44508;SDS011;30214;52.246;14.408;2024-01-25T10:45:56;17.80;;;3.53;;
44508;SDS011;30214;52.246;14.408;2024-01-25T10:48:24;23.92;;;2.75;;
44508;SDS011;30214;52.246;14.408;2024-01-25T10:50:52;17.77;;;2.85;;
44508;SDS011;30214;52.246;14.408;2024-01-25T10:53:24;23.00;;;3.47;;
44508;SDS011;30214;52.246;14.408;2024-01-25T10:55:53;15.32;;;2.90;;
44508;SDS011;30214;52.246;14.408;2024-01-25T10:58:20;18.52;;;3.42;;
44508;SDS011;30214;52.246;14.408;2024-01-25T11:00:51;17.80;;;2.80;;
44508;SDS011;30214;52.246;14.408;2024-01-25T11:03:19;19.55;;;2.95;;
44508;SDS011;30214;52.246;14.408;2024-01-25T11:05:46;14.50;;;2.58;;
44508;SDS011;30214;52.246;14.408;2024-01-25T11:08:19;18.38;;;3.10;;
44508;SDS011;30214;52.246;14.408;2024-01-25T11:10:48;17.75;;;2.78;;
44508;SDS011;30214;52.246;14.408;2024-01-25T11:13:17;24.23;;;3.53;;
44508;SDS011;30214;52.246;14.408;2024-01-25T11:15:52;13.55;;;2.30;;
44508;SDS011;30214;52.246;14.408;2024-01-25T11:18:19;23.90;;;2.90;;
44508;SDS011;30214;52.246;14.408;2024-01-25T11:20:46;17.55;;;2.60;;
44508;SDS011;30214;52.246;14.408;2024-01-25T11:23:15;22.10;;;2.80;;
44508;SDS011;30214;52.246;14.408;2024-01-25T11:25:47;15.55;;;2.47;;
44508;SDS011;30214;52.246;14.408;2024-01-25T11:28:16;17.13;;;2.63;;
44508;SDS011;30214;52.246;14.408;2024-01-25T11:30:44;15.18;;;2.95;;
44508;SDS011;30214;52.246;14.408;2024-01-25T11:33:12;18.73;;;3.13;;
44508;SDS011;30214;52.246;14.408;2024-01-25T11:35:40;13.00;;;2.63;;
44508;SDS011;30214;52.246;14.408;2024-01-25T11:38:08;17.45;;;3.00;;
44508;SDS011;30214;52.246;14.408;2024-01-25T11:40:35;15.80;;;2.83;;
44508;SDS011;30214;52.246;14.408;2024-01-25T11:43:04;17.63;;;5.50;;
44508;SDS011;30214;52.246;14.408;2024-01-25T11:45:35;17.10;;;5.53;;
44508;SDS011;30214;52.246;14.408;2024-01-25T11:48:07;18.90;;;4.40;;
44508;SDS011;30214;52.246;14.408;2024-01-25T11:50:35;16.45;;;4.82;;
44508;SDS011;30214;52.246;14.408;2024-01-25T11:53:02;22.85;;;4.32;;
44508;SDS011;30214;52.246;14.408;2024-01-25T11:55:29;15.63;;;3.33;;
44508;SDS011;30214;52.246;14.408;2024-01-25T11:57:57;16.70;;;2.60;;
44508;SDS011;30214;52.246;14.408;2024-01-25T12:00:26;17.73;;;2.90;;
44508;SDS011;30214;52.246;14.408;2024-01-25T12:02:54;16.33;;;2.92;;
44508;SDS011;30214;52.246;14.408;2024-01-25T12:05:21;12.32;;;2.65;;
44508;SDS011;30214;52.246;14.408;2024-01-25T12:07:48;15.20;;;2.67;;
44508;SDS011;30214;52.246;14.408;2024-01-25T12:10:16;15.30;;;2.63;;
44508;SDS011;30214;52.246;14.408;2024-01-25T12:12:43;15.57;;;3.92;;
44508;SDS011;30214;52.246;14.408;2024-01-25T12:15:11;18.25;;;3.92;;
44508;SDS011;30214;52.246;14.408;2024-01-25T12:17:40;13.73;;;2.38;;
44508;SDS011;30214;52.246;14.408;2024-01-25T12:20:07;16.70;;;3.38;;
44508;SDS011;30214;52.246;14.408;2024-01-25T12:22:37;16.92;;;3.45;;
44508;SDS011;30214;52.246;14.408;2024-01-25T12:25:06;11.63;;;2.75;;
44508;SDS011;30214;52.246;14.408;2024-01-25T12:27:35;15.38;;;2.65;;
44508;SDS011;30214;52.246;14.408;2024-01-25T12:30:02;16.17;;;3.15;;
44508;SDS011;30214;52.246;14.408;2024-01-25T12:32:31;14.40;;;2.70;;
44508;SDS011;30214;52.246;14.408;2024-01-25T12:35:00;17.38;;;5.65;;
44508;SDS011;30214;52.246;14.408;2024-01-25T12:37:29;18.33;;;6.13;;
44508;SDS011;30214;52.246;14.408;2024-01-25T12:39:56;18.80;;;2.90;;
44508;SDS011;30214;52.246;14.408;2024-01-25T12:42:23;15.32;;;3.05;;
44508;SDS011;30214;52.246;14.408;2024-01-25T12:44:52;16.75;;;3.05;;
44508;SDS011;30214;52.246;14.408;2024-01-25T12:47:20;13.52;;;2.90;;
44508;SDS011;30214;52.246;14.408;2024-01-25T12:49:47;17.67;;;2.78;;
44508;SDS011;30214;52.246;14.408;2024-01-25T12:52:16;19.33;;;2.72;;
44508;SDS011;30214;52.246;14.408;2024-01-25T12:54:44;14.90;;;2.55;;
44508;SDS011;30214;52.246;14.408;2024-01-25T12:57:12;18.17;;;2.47;;
44508;SDS011;30214;52.246;14.408;2024-01-25T12:59:39;14.75;;;2.95;;
44508;SDS011;30214;52.246;14.408;2024-01-25T13:02:07;12.52;;;2.70;;
44508;SDS011;30214;52.246;14.408;2024-01-25T13:04:34;14.93;;;2.63;;
44508;SDS011;30214;52.246;14.408;2024-01-25T13:07:02;13.25;;;2.22;;
44508;SDS011;30214;52.246;14.408;2024-01-25T13:09:30;20.67;;;3.53;;
44508;SDS011;30214;52.246;14.408;2024-01-25T13:11:59;14.45;;;2.33;;
44508;SDS011;30214;52.246;14.408;2024-01-25T13:14:26;21.75;;;3.35;;
44508;SDS011;30214;52.246;14.408;2024-01-25T13:16:53;15.73;;;2.70;;
44508;SDS011;30214;52.246;14.408;2024-01-25T13:19:20;16.35;;;2.72;;
44508;SDS011;30214;52.246;14.408;2024-01-25T13:21:48;15.02;;;2.63;;
44508;SDS011;30214;52.246;14.408;2024-01-25T13:24:15;12.40;;;2.65;;
44508;SDS011;30214;52.246;14.408;2024-01-25T13:26:44;11.00;;;2.38;;
44508;SDS011;30214;52.246;14.408;2024-01-25T13:29:14;13.48;;;2.78;;
44508;SDS011;30214;52.246;14.408;2024-01-25T13:31:41;17.67;;;2.72;;
44508;SDS011;30214;52.246;14.408;2024-01-25T13:34:08;16.38;;;3.13;;
44508;SDS011;30214;52.246;14.408;2024-01-25T13:36:36;14.68;;;2.60;;
44508;SDS011;30214;52.246;14.408;2024-01-25T13:39:05;11.80;;;2.55;;
44508;SDS011;30214;52.246;14.408;2024-01-25T13:41:32;13.70;;;2.40;;
44508;SDS011;30214;52.246;14.408;2024-01-25T13:44:01;14.40;;;2.55;;
44508;SDS011;30214;52.246;14.408;2024-01-25T13:46:28;13.45;;;2.65;;
44508;SDS011;30214;52.246;14.408;2024-01-25T13:48:55;19.55;;;7.43;;
44508;SDS011;30214;52.246;14.408;2024-01-25T13:51:23;20.05;;;6.75;;
44508;SDS011;30214;52.246;14.408;2024-01-25T13:53:50;12.13;;;2.75;;
44508;SDS011;30214;52.246;14.408;2024-01-25T13:56:17;15.70;;;3.63;;
44508;SDS011;30214;52.246;14.408;2024-01-25T13:58:44;17.73;;;3.40;;
44508;SDS011;30214;52.246;14.408;2024-01-25T14:01:12;10.82;;;2.58;;
44508;SDS011;30214;52.246;14.408;2024-01-25T14:03:40;11.27;;;2.30;;
44508;SDS011;30214;52.246;14.408;2024-01-25T14:06:10;15.13;;;3.10;;
44508;SDS011;30214;52.246;14.408;2024-01-25T14:08:37;14.85;;;2.63;;
44508;SDS011;30214;52.246;14.408;2024-01-25T14:11:05;14.18;;;2.88;;
44508;SDS011;30214;52.246;14.408;2024-01-25T14:13:32;14.73;;;2.80;;
44508;SDS011;30214;52.246;14.408;2024-01-25T14:16:00;15.60;;;2.95;;
44508;SDS011;30214;52.246;14.408;2024-01-25T14:18:35;14.35;;;3.33;;
44508;SDS011;30214;52.246;14.408;2024-01-25T14:21:11;11.73;;;3.20;;
44508;SDS011;30214;52.246;14.408;2024-01-25T14:23:39;15.02;;;2.58;;
44508;SDS011;30214;52.246;14.408;2024-01-25T14:26:06;13.70;;;2.70;;